Time;durP1;ratioP1;P1;durP2;ratioP2;P2;SDS_P1;SDS_P2;PMS_P1;PMS_P2;Temp;Humidity;BMP_temperature;BMP_pressure;BME280_temperature;BME280_humidity;BME280_pressure;Samples;Min_cycle;Max_cycle;Signal;HPM_P1;HPM_P2
2022/11/20 00:00:51;;;;;;;19.63;11.45;;;0.20;89.80;;;;;;4978144;28;20048;-85
2022/11/20 00:03:17;;;;;;;18.48;11.88;;;0.20;89.70;;;;;;4977789;28;20034;-84
2022/11/20 00:05:43;;;;;;;17.50;11.77;;;0.20;89.60;;;;;;4962098;28;20141;-83
2022/11/20 00:08:10;;;;;;;19.67;12.63;;;0.20;89.50;;;;;;4994178;28;20053;-83
2022/11/20 00:10:40;;;;;;;18.70;13.05;;;0.20;89.50;;;;;;4994302;28;20371;-84
2022/11/20 00:13:07;;;;;;;17.75;11.93;;;0.20;89.40;;;;;;4994318;28;20402;-85
2022/11/20 00:15:33;;;;;;;17.70;12.13;;;0.30;89.40;;;;;;4961662;28;20050;-85
2022/11/20 00:17:59;;;;;;;17.63;11.85;;;0.30;89.20;;;;;;4993979;28;20383;-85
2022/11/20 00:20:25;;;;;;;16.30;10.63;;;0.30;89.20;;;;;;4993755;28;20038;-85
2022/11/20 00:22:51;;;;;;;19.02;11.77;;;0.30;89.10;;;;;;4977424;28;20049;-84
2022/11/20 00:25:17;;;;;;;15.93;11.25;;;0.40;89.00;;;;;;4977813;28;20042;-85
2022/11/20 00:27:43;;;;;;;18.10;11.43;;;0.40;89.00;;;;;;4977375;28;20486;-85
2022/11/20 00:30:09;;;;;;;18.10;10.95;;;0.40;88.90;;;;;;4977282;28;20042;-84
2022/11/20 00:32:35;;;;;;;18.77;11.50;;;0.40;88.90;;;;;;4993830;28;20046;-84
2022/11/20 00:35:00;;;;;;;20.48;14.23;;;0.30;88.90;;;;;;4961290;28;20247;-83
2022/11/20 00:37:26;;;;;;;17.92;11.23;;;0.40;88.90;;;;;;4961179;28;20474;-84
2022/11/20 00:39:51;;;;;;;18.00;11.73;;;0.40;89.00;;;;;;4977182;28;20042;-86
2022/11/20 00:42:17;;;;;;;22.02;14.45;;;0.30;89.00;;;;;;4977221;28;20041;-84
2022/11/20 00:44:43;;;;;;;24.25;15.60;;;0.30;89.00;;;;;;4977382;28;20100;-83
2022/11/20 00:47:09;;;;;;;20.45;15.52;;;0.30;89.10;;;;;;4960978;28;20050;-83
2022/11/20 00:49:34;;;;;;;33.75;28.20;;;0.30;89.30;;;;;;4993190;28;20042;-84
2022/11/20 00:52:00;;;;;;;25.67;21.80;;;0.40;89.40;;;;;;4961151;28;20073;-83
2022/11/20 00:54:26;;;;;;;23.75;16.05;;;0.40;89.30;;;;;;4961073;28;20049;-85
2022/11/20 00:56:54;;;;;;;17.85;12.30;;;0.40;89.30;;;;;;4960047;28;20464;-85
2022/11/20 00:59:20;;;;;;;20.63;12.25;;;0.40;89.10;;;;;;4977173;28;20409;-84
2022/11/20 01:01:46;;;;;;;16.90;11.75;;;0.40;89.00;;;;;;4992995;28;20076;-85
2022/11/20 01:04:11;;;;;;;18.17;12.20;;;0.40;89.00;;;;;;4960771;28;20046;-85
2022/11/20 01:06:39;;;;;;;17.17;12.32;;;0.40;88.80;;;;;;4977025;28;20093;-83
2022/11/20 01:09:11;;;;;;;19.88;14.05;;;0.40;88.80;;;;;;4993038;28;20121;-84
2022/11/20 01:11:40;;;;;;;17.02;10.48;;;0.40;88.80;;;;;;4993139;28;20046;-84
2022/11/20 01:14:10;;;;;;;19.30;11.98;;;0.40;88.60;;;;;;4993007;28;20486;-84
2022/11/20 01:16:38;;;;;;;19.45;12.00;;;0.40;88.40;;;;;;4992837;28;20057;-85
2022/11/20 01:19:09;;;;;;;18.95;11.70;;;0.40;88.50;;;;;;4992703;28;20035;-85
2022/11/20 01:21:38;;;;;;;18.25;13.07;;;0.40;88.40;;;;;;4992836;28;20092;-85
2022/11/20 01:24:05;;;;;;;22.45;14.90;;;0.40;88.60;;;;;;4992631;28;20482;-83
2022/11/20 01:26:33;;;;;;;25.08;18.50;;;0.40;88.60;;;;;;4960795;28;20383;-83
2022/11/20 01:28:59;;;;;;;22.92;14.55;;;0.40;88.60;;;;;;5008816;28;20129;-83
2022/11/20 01:31:31;;;;;;;30.92;22.63;;;0.40;88.40;;;;;;4992850;28;20364;-85
2022/11/20 01:33:59;;;;;;;40.50;27.83;;;0.40;88.50;;;;;;4992732;28;20046;-84
2022/11/20 01:36:27;;;;;;;37.80;26.27;;;0.50;88.40;;;;;;4992747;28;20034;-84
2022/11/20 01:38:57;;;;;;;42.03;27.33;;;0.50;88.50;;;;;;4992382;28;20038;-84
2022/11/20 01:44:12;;;;;;;25.42;17.35;;;0.50;88.30;;;;;;4992490;28;20536;-86
2022/11/20 01:46:56;;;;;;;22.83;16.80;;;0.50;88.40;;;;;;4992468;28;20042;-83
2022/11/20 01:49:42;;;;;;;20.67;13.88;;;0.50;88.30;;;;;;4992441;28;20082;-83
2022/11/20 01:52:18;;;;;;;19.70;14.00;;;0.50;88.30;;;;;;4992497;28;20053;-84
2022/11/20 01:54:58;;;;;;;17.55;11.65;;;0.40;88.40;;;;;;4992478;28;20402;-84
2022/11/20 01:57:27;;;;;;;21.90;11.52;;;0.40;88.30;;;;;;4992130;28;20138;-84
2022/11/20 02:00:09;;;;;;;19.30;11.52;;;0.40;88.20;;;;;;4992330;28;20049;-84
2022/11/20 02:02:37;;;;;;;15.75;11.75;;;0.40;88.30;;;;;;4991980;28;20046;-83
2022/11/20 02:05:16;;;;;;;19.35;12.50;;;0.40;88.30;;;;;;4976069;28;20043;-83
2022/11/20 02:07:42;;;;;;;16.00;11.05;;;0.40;88.30;;;;;;4992766;28;20043;-84
2022/11/20 02:10:08;;;;;;;18.38;11.93;;;0.40;88.50;;;;;;4980056;28;20100;-84
2022/11/20 02:15:18;;;;;;;17.13;11.40;;;0.30;88.70;;;;;;4968671;28;20145;-85
2022/11/20 02:17:43;;;;;;;15.65;10.98;;;0.30;89.00;;;;;;4979815;28;20129;-84
2022/11/20 02:20:10;;;;;;;19.58;11.85;;;0.30;89.10;;;;;;4996264;28;20158;-85
2022/11/20 02:22:48;;;;;;;19.55;12.73;;;0.30;89.20;;;;;;4979661;28;20101;-84
2022/11/20 02:25:14;;;;;;;15.68;10.95;;;0.30;89.10;;;;;;4995875;28;20558;-83
2022/11/20 02:27:40;;;;;;;18.63;12.07;;;0.30;89.30;;;;;;4979681;28;20074;-85
2022/11/20 02:30:07;;;;;;;16.00;10.25;;;0.30;89.30;;;;;;4995852;28;20081;-85
2022/11/20 02:32:35;;;;;;;18.63;11.23;;;0.20;89.40;;;;;;4979873;28;20120;-84
2022/11/20 02:35:30;;;;;;;18.48;11.65;;;0.20;89.40;;;;;;4995575;28;20450;-85
2022/11/20 02:38:00;;;;;;;18.25;11.98;;;0.30;89.50;;;;;;4995877;28;20086;-85
2022/11/20 02:40:26;;;;;;;18.10;12.38;;;0.20;89.60;;;;;;4995959;28;20449;-86
2022/11/20 02:42:53;;;;;;;17.08;11.95;;;0.30;89.70;;;;;;4979456;28;20038;-83
2022/11/20 02:45:19;;;;;;;16.95;10.82;;;0.30;89.80;;;;;;4979411;28;20046;-84
2022/11/20 02:47:44;;;;;;;16.38;11.30;;;0.40;89.80;;;;;;4979226;28;20046;-83
2022/11/20 02:50:10;;;;;;;17.45;11.98;;;0.40;89.80;;;;;;4979513;28;20046;-83
2022/11/20 02:52:36;;;;;;;18.23;12.02;;;0.40;89.70;;;;;;4963172;28;20437;-83
2022/11/20 02:55:02;;;;;;;17.98;11.23;;;0.40;89.50;;;;;;4995050;28;20034;-84
2022/11/20 02:57:27;;;;;;;15.32;11.45;;;0.40;89.50;;;;;;4995259;28;20142;-85
2022/11/20 02:59:53;;;;;;;18.10;11.68;;;0.50;89.50;;;;;;4979332;28;20121;-83
2022/11/20 03:02:20;;;;;;;15.77;10.43;;;0.50;89.50;;;;;;4995217;28;20398;-83
2022/11/20 03:04:46;;;;;;;15.68;11.05;;;0.50;89.30;;;;;;4995414;28;20042;-85
2022/11/20 03:07:11;;;;;;;15.60;10.90;;;0.50;89.10;;;;;;4978963;28;20125;-84
2022/11/20 03:09:37;;;;;;;16.50;11.52;;;0.50;89.00;;;;;;4978930;28;20038;-84
2022/11/20 03:12:03;;;;;;;16.10;11.65;;;0.50;88.90;;;;;;4978924;28;20101;-84
2022/11/20 03:14:29;;;;;;;15.98;10.75;;;0.50;88.90;;;;;;4962621;28;20049;-84
2022/11/20 03:16:55;;;;;;;14.43;10.40;;;0.50;88.90;;;;;;4962656;28;20117;-83
2022/11/20 03:19:21;;;;;;;16.65;11.48;;;0.50;88.90;;;;;;4978776;28;20394;-84
2022/11/20 03:21:47;;;;;;;15.68;11.13;;;0.60;88.90;;;;;;4978814;28;20038;-84
2022/11/20 03:24:13;;;;;;;18.70;11.50;;;0.50;88.80;;;;;;4962831;28;20042;-84
2022/11/20 03:26:39;;;;;;;18.70;10.90;;;0.50;88.70;;;;;;4978845;28;20046;-85
2022/11/20 03:29:05;;;;;;;17.25;11.27;;;0.50;88.70;;;;;;4978396;28;20042;-84
2022/11/20 03:31:36;;;;;;;16.52;11.13;;;0.60;88.60;;;;;;4978519;28;20045;-84
2022/11/20 03:34:03;;;;;;;16.98;11.50;;;0.50;88.50;;;;;;4994436;28;20042;-84
2022/11/20 03:36:29;;;;;;;13.95;9.90;;;0.50;88.50;;;;;;5009600;28;20152;-83
2022/11/20 03:38:56;;;;;;;17.10;10.52;;;0.50;88.60;;;;;;5014058;28;20068;-85
2022/11/20 03:41:24;;;;;;;16.10;10.52;;;0.50;88.50;;;;;;4997761;28;20485;-85
2022/11/20 03:44:01;;;;;;;18.08;11.07;;;0.50;88.60;;;;;;5014370;28;20088;-83
2022/11/20 03:46:28;;;;;;;15.65;10.73;;;0.50;88.50;;;;;;5014080;28;20080;-83
2022/11/20 03:48:54;;;;;;;16.25;10.50;;;0.50;88.40;;;;;;5014181;28;20041;-84
2022/11/20 03:51:23;;;;;;;15.77;10.25;;;0.40;88.40;;;;;;5014123;28;20401;-84
2022/11/20 03:53:50;;;;;;;16.70;10.80;;;0.40;88.50;;;;;;5013980;28;20390;-84
2022/11/20 03:56:19;;;;;;;14.55;10.35;;;0.40;88.40;;;;;;4997405;28;20119;-84
2022/11/20 03:58:45;;;;;;;16.90;10.65;;;0.30;88.40;;;;;;5030176;28;20096;-84
2022/11/20 04:01:14;;;;;;;15.20;10.40;;;0.30;88.50;;;;;;4997119;28;20133;-85
2022/11/20 04:03:41;;;;;;;17.58;10.82;;;0.20;88.50;;;;;;5013974;28;20042;-84
2022/11/20 04:06:13;;;;;;;15.15;10.68;;;0.10;88.50;;;;;;4994607;28;20042;-84
2022/11/20 04:08:40;;;;;;;16.25;10.25;;;0.10;88.50;;;;;;5013536;28;20125;-84
2022/11/20 04:11:30;;;;;;;16.20;10.93;;;0.10;88.50;;;;;;5013514;28;20045;-84
2022/11/20 04:14:01;;;;;;;18.02;11.60;;;0.10;88.70;;;;;;5013686;28;20417;-85
2022/11/20 04:16:30;;;;;;;16.25;11.50;;;0.00;88.80;;;;;;5013390;28;20049;-85
2022/11/20 04:18:58;;;;;;;17.38;10.45;;;0.00;89.00;;;;;;5013324;28;20494;-83
2022/11/20 04:21:24;;;;;;;18.35;11.40;;;0.00;89.00;;;;;;5013671;28;20125;-83
2022/11/20 04:23:52;;;;;;;17.73;12.93;;;0.00;89.20;;;;;;4997278;28;20045;-85
2022/11/20 04:26:19;;;;;;;15.90;11.52;;;0.00;89.20;;;;;;5013174;28;20038;-83
2022/11/20 04:28:44;;;;;;;16.90;11.32;;;0.00;89.10;;;;;;5013443;28;20034;-84
2022/11/20 04:31:16;;;;;;;20.77;12.60;;;0.00;89.10;;;;;;5012549;28;20503;-83
2022/11/20 04:33:42;;;;;;;17.83;11.73;;;-3276.70;89.10;;;;;;5013026;28;20037;-85
2022/11/20 04:36:19;;;;;;;19.27;11.40;;;-3276.70;88.90;;;;;;4980915;28;20049;-84
2022/11/20 04:38:45;;;;;;;17.30;11.23;;;-3276.70;88.90;;;;;;5013241;28;20397;-84
2022/11/20 04:41:16;;;;;;;16.25;11.30;;;-3276.70;89.10;;;;;;5013273;28;20042;-85
2022/11/20 04:43:47;;;;;;;18.30;12.05;;;-3276.70;89.20;;;;;;5013363;28;20470;-83
2022/11/20 04:46:13;;;;;;;19.67;12.52;;;-3276.70;89.40;;;;;;5012919;28;20499;-83
2022/11/20 04:48:39;;;;;;;18.23;11.63;;;-3276.60;89.50;;;;;;4996526;28;20034;-84
2022/11/20 04:51:04;;;;;;;16.80;11.80;;;-3276.60;89.50;;;;;;4980237;28;20038;-83
2022/11/20 04:53:30;;;;;;;16.55;10.95;;;-3276.60;89.50;;;;;;4980611;28;20037;-85
2022/11/20 04:56:05;;;;;;;19.63;12.43;;;-3276.50;89.50;;;;;;5012451;28;20053;-85
2022/11/20 04:58:31;;;;;;;18.73;11.45;;;-3276.50;89.50;;;;;;5012842;28;20065;-85
2022/11/20 05:01:14;;;;;;;17.35;11.40;;;-3276.50;89.70;;;;;;4996616;28;20048;-83
2022/11/20 05:03:41;;;;;;;16.73;10.77;;;-3276.50;89.70;;;;;;5014645;28;20045;-82
2022/11/20 05:06:07;;;;;;;21.08;12.13;;;-3276.40;89.50;;;;;;5012804;28;20160;-82
2022/11/20 05:08:34;;;;;;;17.02;11.07;;;-3276.40;89.70;;;;;;5012409;28;20539;-84
2022/11/20 05:11:11;;;;;;;17.20;11.05;;;-3276.40;89.70;;;;;;5012842;28;20389;-84
2022/11/20 05:13:37;;;;;;;14.75;10.25;;;-3276.30;89.70;;;;;;5012731;28;20046;-85
2022/11/20 05:16:12;;;;;;;15.27;10.23;;;-3276.20;89.70;;;;;;4996152;28;20100;-84
2022/11/20 05:18:38;;;;;;;16.85;11.40;;;-3276.10;89.70;;;;;;5012568;28;20053;-82
2022/11/20 05:21:05;;;;;;;15.50;11.05;;;-3276.10;89.80;;;;;;5012306;28;20041;-82
2022/11/20 05:23:32;;;;;;;16.83;10.85;;;-3276.10;89.80;;;;;;4996342;28;20061;-84
2022/11/20 05:25:58;;;;;;;16.45;11.68;;;-3276.10;89.90;;;;;;4996122;28;20044;-85
2022/11/20 05:28:25;;;;;;;18.10;11.20;;;-3276.10;89.80;;;;;;5012242;28;20034;-83
2022/11/20 05:30:51;;;;;;;18.33;11.55;;;-3276.20;90.00;;;;;;4995992;28;20049;-85
2022/11/20 05:33:17;;;;;;;19.13;11.73;;;-3276.20;90.00;;;;;;4995819;28;20042;-82
2022/11/20 05:35:43;;;;;;;20.67;12.15;;;-3276.30;89.90;;;;;;5012094;28;20052;-83
2022/11/20 05:38:09;;;;;;;14.98;10.52;;;-3276.30;89.90;;;;;;5012362;28;20042;-84
2022/11/20 05:40:35;;;;;;;14.98;10.68;;;-3276.30;89.70;;;;;;4995854;28;20037;-84
2022/11/20 05:43:01;;;;;;;16.92;10.98;;;-3276.10;89.60;;;;;;4995516;28;20548;-84
2022/11/20 05:45:26;;;;;;;14.68;10.98;;;-3276.10;89.60;;;;;;4995733;28;20077;-82
2022/11/20 05:47:52;;;;;;;15.38;10.23;;;-3276.00;89.60;;;;;;4995597;28;20084;-82
2022/11/20 05:50:18;;;;;;;15.90;10.63;;;-3276.00;89.60;;;;;;5012119;28;20091;-84
2022/11/20 05:52:44;;;;;;;16.98;11.43;;;-3276.00;89.70;;;;;;4995691;28;20042;-84
2022/11/20 05:55:09;;;;;;;18.65;11.57;;;-3276.00;89.60;;;;;;5011742;28;20049;-83
2022/11/20 05:57:35;;;;;;;16.10;10.90;;;-3276.00;89.40;;;;;;5011844;28;20052;-83
2022/11/20 06:00:02;;;;;;;16.52;10.85;;;-3276.00;89.60;;;;;;4979365;28;20096;-85
2022/11/20 06:02:28;;;;;;;19.60;11.38;;;-3276.00;89.80;;;;;;5012108;28;20045;-84
2022/11/20 06:04:54;;;;;;;16.10;11.48;;;-3276.00;89.90;;;;;;4995654;28;20449;-82
2022/11/20 06:07:19;;;;;;;17.65;11.10;;;-3276.00;90.00;;;;;;4979563;28;20034;-85
2022/11/20 06:09:45;;;;;;;19.40;11.90;;;-3276.10;90.00;;;;;;5011858;28;20089;-84
2022/11/20 06:12:11;;;;;;;15.77;11.15;;;-3276.10;89.90;;;;;;4995501;28;20052;-83
2022/11/20 06:14:36;;;;;;;16.05;11.88;;;-3276.00;89.60;;;;;;5011830;28;20038;-84
2022/11/20 06:17:02;;;;;;;19.85;13.50;;;-3276.00;89.80;;;;;;5011702;28;20053;-84
2022/11/20 06:19:28;;;;;;;17.48;12.30;;;-3276.00;89.80;;;;;;5011847;28;20394;-83
2022/11/20 06:21:53;;;;;;;18.38;12.88;;;-3276.10;89.90;;;;;;4979164;28;20044;-83
2022/11/20 06:24:19;;;;;;;20.20;13.60;;;-3276.10;90.10;;;;;;4979168;28;20038;-84
2022/11/20 06:26:45;;;;;;;19.67;13.70;;;-3276.10;90.30;;;;;;4995253;28;20042;-84
2022/11/20 06:29:11;;;;;;;17.92;13.10;;;-3276.10;90.00;;;;;;4979275;28;20050;-84
2022/11/20 06:31:37;;;;;;;18.23;12.05;;;-3276.10;90.20;;;;;;5011597;28;20052;-82
2022/11/20 06:34:06;;;;;;;18.67;12.73;;;-3276.10;90.20;;;;;;4979422;28;20056;-84
2022/11/20 06:36:32;;;;;;;19.90;13.00;;;-3276.10;90.40;;;;;;4995289;28;20049;-84
2022/11/20 06:38:59;;;;;;;17.58;12.50;;;-3276.10;90.60;;;;;;4995236;28;20045;-85
2022/11/20 06:41:25;;;;;;;33.53;21.30;;;-3276.10;90.60;;;;;;4995206;28;20037;-82
2022/11/20 06:43:51;;;;;;;34.95;22.08;;;-3276.00;90.60;;;;;;5011522;28;20389;-85
2022/11/20 06:46:18;;;;;;;26.50;16.80;;;-3276.10;90.60;;;;;;4995410;28;20038;-82
2022/11/20 06:48:44;;;;;;;22.38;13.48;;;-3276.10;90.70;;;;;;5011340;28;20486;-84
2022/11/20 06:51:10;;;;;;;22.77;14.93;;;-3276.10;90.60;;;;;;5011756;28;20038;-83
2022/11/20 06:53:37;;;;;;;18.95;12.45;;;-3276.10;90.40;;;;;;4995274;28;20046;-83
2022/11/20 06:56:03;;;;;;;20.33;14.05;;;-3276.10;90.50;;;;;;4982438;28;20054;-84
2022/11/20 06:58:30;;;;;;;19.88;13.13;;;-3276.10;90.30;;;;;;5015028;28;20056;-85
2022/11/20 07:01:05;;;;;;;20.73;13.55;;;-3276.10;90.40;;;;;;5014631;28;20038;-84
2022/11/20 07:03:31;;;;;;;;;;;-3276.10;90.40;;;;;;5014863;28;20498;-83
2022/11/20 07:05:58;;;;;;;24.73;15.02;;;-3276.10;90.60;;;;;;5014779;28;20019;-84
2022/11/20 07:08:24;;;;;;;21.27;14.43;;;-3276.10;90.40;;;;;;5014468;28;20520;-82
2022/11/20 07:10:50;;;;;;;19.23;13.10;;;-3276.10;90.70;;;;;;5014917;28;20037;-85
2022/11/20 07:13:16;;;;;;;26.25;14.07;;;-3276.10;90.70;;;;;;4998640;28;20375;-82
2022/11/20 07:15:42;;;;;;;28.23;16.67;;;-3276.10;90.40;;;;;;5014634;28;20049;-85
2022/11/20 07:18:08;;;;;;;24.60;16.23;;;-3276.10;90.60;;;;;;5014395;28;20092;-84
2022/11/20 07:20:33;;;;;;;26.85;17.63;;;-3276.10;90.70;;;;;;5014537;28;20044;-84
2022/11/20 07:22:59;;;;;;;27.55;15.40;;;-3276.10;90.70;;;;;;4998247;28;20091;-85
2022/11/20 07:25:26;;;;;;;23.75;14.00;;;-3276.10;90.80;;;;;;5014494;28;20476;-82
2022/11/20 07:27:52;;;;;;;23.58;15.07;;;-3276.20;91.10;;;;;;5014558;28;20045;-83
2022/11/20 07:30:18;;;;;;;23.85;16.15;;;-3276.20;90.90;;;;;;4997979;28;20555;-82
2022/11/20 07:32:50;;;;;;;20.83;13.13;;;-3276.30;91.10;;;;;;5014192;28;20041;-84
2022/11/20 07:35:16;;;;;;;20.63;13.70;;;-3276.30;91.10;;;;;;4998481;28;20136;-83
2022/11/20 07:37:42;;;;;;;21.90;14.55;;;-3276.40;91.50;;;;;;5014396;28;20494;-82
2022/11/20 07:40:08;;;;;;;20.85;13.88;;;-3276.40;91.40;;;;;;4981877;28;20030;-84
2022/11/20 07:42:34;;;;;;;22.17;14.68;;;-3276.50;91.40;;;;;;4997885;28;20524;-84
2022/11/20 07:44:59;;;;;;;21.30;14.20;;;-3276.50;91.30;;;;;;5014574;28;20050;-81
2022/11/20 07:47:25;;;;;;;23.27;15.45;;;-3276.50;91.30;;;;;;4997706;28;20460;-83
2022/11/20 07:49:50;;;;;;;18.02;12.70;;;-3276.50;91.10;;;;;;4997832;28;20072;-85
2022/11/20 07:52:16;;;;;;;21.58;14.02;;;-3276.50;91.00;;;;;;5014165;28;20056;-84
2022/11/20 07:54:42;;;;;;;20.85;15.15;;;-3276.50;90.80;;;;;;4981391;28;20481;-82
2022/11/20 07:57:07;;;;;;;23.90;14.23;;;-3276.50;90.60;;;;;;4997280;28;20457;-85
2022/11/20 07:59:33;;;;;;;22.38;15.43;;;-3276.50;90.60;;;;;;4997432;28;20044;-84
2022/11/20 08:01:59;;;;;;;30.77;19.77;;;-3276.50;90.70;;;;;;5013984;28;20041;-82
2022/11/20 08:04:24;;;;;;;35.75;21.85;;;-3276.50;90.80;;;;;;4997579;28;20104;-82
2022/11/20 08:06:52;;;;;;;40.10;25.65;;;-3276.50;90.80;;;;;;5013547;28;20125;-82
2022/11/20 08:09:17;;;;;;;31.70;20.63;;;-3276.50;90.80;;;;;;4997179;28;20520;-83
2022/11/20 08:14:27;;;;;;;25.30;15.57;;;-3276.50;90.70;;;;;;5013402;28;20056;-85
2022/11/20 08:16:53;;;;;;;48.13;28.63;;;-3276.50;90.60;;;;;;4997096;28;20059;-81
2022/11/20 08:19:19;;;;;;;39.78;26.95;;;-3276.40;90.50;;;;;;5013649;28;20366;-83
2022/11/20 08:21:45;;;;;;;39.22;23.85;;;-3276.40;90.30;;;;;;4997388;28;20092;-82
2022/11/20 08:24:11;;;;;;;64.32;40.65;;;-3276.40;90.30;;;;;;4980807;28;20049;-82
2022/11/20 08:26:38;;;;;;;36.78;22.08;;;-3276.40;90.20;;;;;;4997031;28;20119;-83
2022/11/20 08:29:04;;;;;;;47.78;31.20;;;-3276.50;90.10;;;;;;5013466;28;20468;-81
2022/11/20 08:31:31;;;;;;;46.08;30.42;;;-3276.50;89.80;;;;;;5013210;28;20098;-84
2022/11/20 08:33:57;;;;;;;32.08;21.73;;;-3276.50;89.90;;;;;;5013146;28;20053;-82
2022/11/20 08:36:24;;;;;;;25.08;17.20;;;-3276.50;90.00;;;;;;5013155;28;20045;-82
2022/11/20 08:38:52;;;;;;;27.85;19.75;;;-3276.60;90.00;;;;;;5012922;28;20088;-84
2022/11/20 08:41:23;;;;;;;25.50;16.98;;;-3276.60;90.00;;;;;;5013317;28;20041;-83
2022/11/20 08:44:00;;;;;;;35.45;26.10;;;-3276.70;90.00;;;;;;4981356;28;20042;-85
2022/11/20 08:46:27;;;;;;;61.60;40.20;;;-3276.70;89.70;;;;;;5013139;28;20124;-82
2022/11/20 08:48:53;;;;;;;38.92;24.42;;;-3276.70;89.80;;;;;;5013352;28;20060;-83
2022/11/20 08:51:20;;;;;;;38.85;25.05;;;-3276.70;89.80;;;;;;5012781;28;20421;-82
2022/11/20 08:53:48;;;;;;;43.25;31.70;;;0.00;89.80;;;;;;5012950;28;20386;-84
2022/11/20 08:56:14;;;;;;;36.30;29.05;;;0.00;89.70;;;;;;4980275;28;20054;-83
2022/11/20 08:58:40;;;;;;;49.88;34.85;;;0.00;89.80;;;;;;4996285;28;20169;-81
2022/11/20 09:01:06;;;;;;;41.67;31.35;;;0.00;89.80;;;;;;5012699;28;20034;-83
2022/11/20 09:03:31;;;;;;;27.35;19.77;;;0.10;89.80;;;;;;4996495;28;20041;-85
2022/11/20 09:06:02;;;;;;;36.42;29.90;;;0.10;89.70;;;;;;4996483;28;20053;-85
2022/11/20 09:08:28;;;;;;;37.15;28.00;;;0.10;89.60;;;;;;5012998;28;20112;-85
2022/11/20 09:10:56;;;;;;;21.95;16.52;;;0.10;89.60;;;;;;5012836;28;20433;-87
2022/11/20 09:13:23;;;;;;;20.27;14.20;;;0.20;89.70;;;;;;5012663;28;20050;-84
2022/11/20 09:16:00;;;;;;;17.40;12.18;;;0.20;89.60;;;;;;5012733;28;20371;-84
2022/11/20 09:18:28;;;;;;;19.40;13.23;;;0.20;89.70;;;;;;5012477;28;20037;-82
2022/11/20 09:21:01;;;;;;;21.20;14.13;;;0.30;89.80;;;;;;4996012;28;20042;-82
2022/11/20 09:23:30;;;;;;;20.80;14.00;;;0.40;89.70;;;;;;4980613;28;20041;-88
2022/11/20 09:25:59;;;;;;;19.92;12.90;;;0.40;89.80;;;;;;4980741;28;20096;-87
2022/11/20 09:28:26;;;;;;;22.77;15.13;;;0.50;89.60;;;;;;4996381;28;20132;-85
2022/11/20 09:30:51;;;;;;;20.23;14.35;;;0.60;89.70;;;;;;5012551;28;20498;-88
2022/11/20 09:33:17;;;;;;;20.23;13.70;;;0.50;89.50;;;;;;4980413;28;20044;-87
2022/11/20 09:35:43;;;;;;;16.75;12.40;;;0.60;89.30;;;;;;5013012;28;20080;-84
2022/11/20 09:38:10;;;;;;;17.95;12.00;;;0.60;89.20;;;;;;4996296;28;20486;-88
2022/11/20 09:40:44;;;;;;;16.75;11.85;;;0.70;89.20;;;;;;4997184;28;20041;-87
2022/11/20 09:43:21;;;;;;;17.93;12.47;;;0.80;89.30;;;;;;5012841;28;20053;-84
2022/11/20 09:46:06;;;;;;;16.92;11.68;;;0.90;89.30;;;;;;5012482;28;20041;-86
2022/11/20 09:48:38;;;;;;;17.05;12.00;;;1.10;89.40;;;;;;5012543;28;20397;-87
2022/11/20 09:51:28;;;;;;;17.10;12.10;;;1.20;89.70;;;;;;4996239;28;20513;-86
2022/11/20 09:54:12;;;;;;;19.80;13.43;;;1.30;89.40;;;;;;5012265;28;20046;-84
2022/11/20 09:56:42;;;;;;;15.35;11.75;;;1.50;89.40;;;;;;4995567;28;20058;-83
2022/11/20 09:59:23;;;;;;;17.35;12.75;;;1.60;89.20;;;;;;5028701;28;20045;-86
2022/11/20 10:01:50;;;;;;;17.15;13.10;;;1.60;89.10;;;;;;4995908;28;20052;-87
2022/11/20 10:04:20;;;;;;;15.80;11.93;;;1.70;89.20;;;;;;4995908;28;20049;-82
2022/11/20 10:07:08;;;;;;;17.00;12.13;;;1.80;89.10;;;;;;5012088;28;20239;-82
2022/11/20 10:09:37;;;;;;;17.88;11.85;;;2.00;89.00;;;;;;5012405;28;20099;-85
2022/11/20 10:12:13;;;;;;;17.67;12.18;;;2.20;89.00;;;;;;5012383;28;20397;-84
2022/11/20 10:14:58;;;;;;;16.40;12.20;;;2.40;88.60;;;;;;5012177;28;20042;-84
2022/11/20 10:17:50;;;;;;;14.32;10.68;;;2.60;88.40;;;;;;5011958;28;20501;-83
2022/11/20 10:20:35;;;;;;;14.15;10.30;;;2.70;87.90;;;;;;5012063;28;20069;-82
2022/11/20 10:23:31;;;;;;;16.17;10.75;;;2.80;87.20;;;;;;4995901;28;20092;-84
2022/11/20 10:26:25;;;;;;;15.57;10.80;;;2.80;86.40;;;;;;4995433;28;20042;-81
2022/11/20 10:29:10;;;;;;;15.85;11.30;;;2.80;86.50;;;;;;5013013;28;20042;-82
2022/11/20 10:31:45;;;;;;;13.68;9.73;;;2.90;86.20;;;;;;4999347;28;20054;-86
2022/11/20 10:34:25;;;;;;;15.77;10.38;;;2.90;86.30;;;;;;5015682;28;20042;-84
2022/11/20 10:37:09;;;;;;;14.02;10.10;;;2.90;85.90;;;;;;5015615;28;20269;-83
2022/11/20 10:39:42;;;;;;;12.73;8.95;;;2.90;85.50;;;;;;5015621;28;20139;-84
2022/11/20 10:42:17;;;;;;;12.70;9.10;;;3.00;85.50;;;;;;4999222;28;20038;-82
2022/11/20 10:45:00;;;;;;;12.57;8.77;;;3.00;84.80;;;;;;5010580;28;20544;-84
2022/11/20 10:47:29;;;;;;;12.05;8.27;;;3.10;84.60;;;;;;4985418;28;20382;-83
2022/11/20 10:50:06;;;;;;;12.48;8.88;;;3.30;84.60;;;;;;4996182;28;20074;-85
2022/11/20 10:52:51;;;;;;;11.07;8.60;;;3.40;83.50;;;;;;5012129;28;20053;-82
2022/11/20 10:55:46;;;;;;;13.52;9.85;;;3.50;83.40;;;;;;5011679;28;20506;-84
2022/11/20 10:58:23;;;;;;;14.02;10.80;;;3.50;82.60;;;;;;4979602;28;20402;-83
2022/11/20 11:00:48;;;;;;;11.30;8.48;;;3.40;81.40;;;;;;4995662;28;20042;-86
2022/11/20 11:03:25;;;;;;;11.18;7.82;;;3.40;81.00;;;;;;4979878;28;20049;-85
2022/11/20 11:06:10;;;;;;;9.18;7.20;;;3.30;80.00;;;;;;4995827;28;20409;-84
2022/11/20 11:08:39;;;;;;;9.90;7.50;;;3.20;80.00;;;;;;4995703;28;20075;-85
2022/11/20 11:11:27;;;;;;;9.70;7.60;;;3.20;80.60;;;;;;4995493;28;20163;-85
2022/11/20 11:13:52;;;;;;;7.68;6.00;;;3.10;79.30;;;;;;4995538;28;20049;-83
2022/11/20 11:16:27;;;;;;;6.75;5.28;;;3.10;79.10;;;;;;4979221;28;20035;-85
2022/11/20 11:19:04;;;;;;;6.88;5.38;;;3.00;74.00;;;;;;4979046;28;20092;-84
2022/11/20 11:21:30;;;;;;;9.57;5.93;;;2.90;74.80;;;;;;4995080;28;20042;-85
2022/11/20 11:24:01;;;;;;;6.80;5.40;;;2.90;72.80;;;;;;4962905;28;20041;-84
2022/11/20 11:26:27;;;;;;;7.28;6.18;;;3.00;74.00;;;;;;4995493;28;20125;-85
2022/11/20 11:28:54;;;;;;;8.90;6.05;;;3.00;74.00;;;;;;4978913;28;20042;-84
2022/11/20 11:31:25;;;;;;;10.68;7.32;;;3.10;75.90;;;;;;4978751;28;20073;-85
2022/11/20 11:33:51;;;;;;;11.23;9.18;;;3.20;76.60;;;;;;4994880;28;20045;-83
2022/11/20 11:36:21;;;;;;;12.98;8.63;;;3.30;76.90;;;;;;4962737;28;20034;-87
2022/11/20 11:38:52;;;;;;;13.88;8.70;;;3.40;76.60;;;;;;4995045;28;20049;-84
2022/11/20 11:41:22;;;;;;;12.32;8.85;;;3.50;76.00;;;;;;4994293;28;20038;-86
2022/11/20 11:46:40;;;;;;;11.02;7.80;;;4.30;71.40;;;;;;4995009;28;20108;-85
2022/11/20 11:49:08;;;;;;;9.23;7.13;;;5.00;70.90;;;;;;4994677;28;20093;-84
2022/11/20 11:51:46;;;;;;;10.23;7.40;;;5.30;65.30;;;;;;4994560;28;20490;-85
2022/11/20 11:54:22;;;;;;;9.80;7.80;;;5.40;66.70;;;;;;4978415;28;20086;-85
2022/11/20 11:56:49;;;;;;;9.48;8.25;;;5.30;68.60;;;;;;4994403;28;20458;-85
2022/11/20 11:59:31;;;;;;;10.68;8.52;;;5.00;68.20;;;;;;4978376;28;20038;-84
2022/11/20 12:02:03;;;;;;;10.63;7.95;;;4.70;65.60;;;;;;4994425;28;20125;-84
2022/11/20 12:04:58;;;;;;;9.40;7.72;;;4.40;67.90;;;;;;4994520;28;20043;-85
2022/11/20 12:07:45;;;;;;;11.00;7.55;;;4.10;68.90;;;;;;4994338;28;20108;-86
2022/11/20 12:10:28;;;;;;;10.20;7.82;;;4.00;70.40;;;;;;4994448;28;20038;-85
2022/11/20 12:13:30;;;;;;;10.18;7.63;;;3.90;72.00;;;;;;4994358;28;20133;-86
2022/11/20 12:15:56;;;;;;;11.98;9.45;;;3.80;70.80;;;;;;4994042;28;20038;-83
2022/11/20 12:18:22;;;;;;;10.38;7.07;;;3.80;70.60;;;;;;4962671;28;20093;-84
2022/11/20 12:21:22;;;;;;;10.25;7.20;;;3.70;69.20;;;;;;4993636;28;20080;-87
2022/11/20 12:24:00;;;;;;;12.07;8.07;;;3.60;69.10;;;;;;4978049;28;20121;-86
2022/11/20 12:26:41;;;;;;;11.88;8.82;;;3.50;70.10;;;;;;4977668;28;20129;-84
2022/11/20 12:29:38;;;;;;;11.45;8.13;;;3.40;70.30;;;;;;4977752;28;20038;-83
2022/11/20 12:32:26;;;;;;;16.23;9.30;;;3.40;70.70;;;;;;4977981;28;20038;-87
2022/11/20 12:35:10;;;;;;;13.57;9.45;;;3.30;70.00;;;;;;4977633;28;20414;-84
2022/11/20 12:37:57;;;;;;;17.00;9.23;;;3.20;71.40;;;;;;5009926;28;20049;-84
2022/11/20 12:40:39;;;;;;;15.70;8.82;;;3.20;71.70;;;;;;4977506;28;20042;-83
2022/11/20 12:46:14;;;;;;;10.95;8.10;;;3.10;71.40;;;;;;4986223;28;20053;-85
2022/11/20 12:48:43;;;;;;;;;;;3.10;71.30;;;;;;4978150;28;20386;-84
2022/11/20 12:51:18;;;;;;;10.18;7.07;;;3.10;71.30;;;;;;4977226;28;20025;-85
2022/11/20 12:53:47;;;;;;;11.82;7.07;;;3.10;72.60;;;;;;4977419;28;20046;-83